Juniata, Nebraska
Current Conditions -  °F | °C
As of 1:53 PM on Sunday 23 Nov 2014 (Local Time) from KHSI Reporting Station
Overcast Overcast  
Wind Chill: 34°   Ceiling: 11000
Heat Index: 43°   Visibility: 10mi
Dew Point: 32°   Wind: 23mph
Humidity: 65%   Direction: 350°N
Pressure: 29.56"   Gusts: 31mph
Location:  40.59°N, 98.51°W
Report Text: KHSI 231953Z AUTO 35020G27KT 10SM OVC110 06/00 A2956 RMK AO2 PK WND 35029/1920 SLP010 T00610000
Loading
Personal Weather Stations






























Interactive Weather Map New forecast layout! Learn more

10-Day Weather Forecast

Advertisements
Track Severe Weather on mobile